sensor_id;sensor_type;location;lat;lon;timestamp;P1;durP1;ratioP1;P2;durP2;ratioP2
67514;SDS011;60646;55.802;37.032;2023-02-26T00:00:03;7.50;;;3.45;;
67514;SDS011;60646;55.802;37.032;2023-02-26T00:02:33;8.95;;;4.00;;
67514;SDS011;60646;55.802;37.032;2023-02-26T00:05:01;8.75;;;4.35;;
67514;SDS011;60646;55.802;37.032;2023-02-26T00:07:28;8.02;;;3.60;;
67514;SDS011;60646;55.802;37.032;2023-02-26T00:09:54;8.35;;;4.25;;
67514;SDS011;60646;55.802;37.032;2023-02-26T00:12:20;9.15;;;4.68;;
67514;SDS011;60646;55.802;37.032;2023-02-26T00:14:46;8.77;;;4.72;;
67514;SDS011;60646;55.802;37.032;2023-02-26T00:17:25;7.75;;;3.90;;
67514;SDS011;60646;55.802;37.032;2023-02-26T00:20:08;10.05;;;4.25;;
67514;SDS011;60646;55.802;37.032;2023-02-26T00:22:41;8.77;;;4.00;;
67514;SDS011;60646;55.802;37.032;2023-02-26T00:25:07;10.20;;;4.95;;
67514;SDS011;60646;55.802;37.032;2023-02-26T00:27:34;13.35;;;6.05;;
67514;SDS011;60646;55.802;37.032;2023-02-26T00:30:00;10.32;;;4.55;;
67514;SDS011;60646;55.802;37.032;2023-02-26T00:32:30;10.60;;;4.93;;
67514;SDS011;60646;55.802;37.032;2023-02-26T00:34:56;13.05;;;4.72;;
67514;SDS011;60646;55.802;37.032;2023-02-26T00:40:22;13.60;;;5.80;;
67514;SDS011;60646;55.802;37.032;2023-02-26T00:43:00;12.38;;;5.35;;
67514;SDS011;60646;55.802;37.032;2023-02-26T00:45:26;11.82;;;5.53;;
67514;SDS011;60646;55.802;37.032;2023-02-26T00:48:04;12.13;;;5.07;;
67514;SDS011;60646;55.802;37.032;2023-02-26T00:50:58;10.63;;;5.05;;
67514;SDS011;60646;55.802;37.032;2023-02-26T00:56:39;11.85;;;5.05;;
67514;SDS011;60646;55.802;37.032;2023-02-26T00:59:06;12.32;;;5.00;;
67514;SDS011;60646;55.802;37.032;2023-02-26T01:01:31;10.15;;;4.50;;
67514;SDS011;60646;55.802;37.032;2023-02-26T01:03:57;7.90;;;4.60;;
67514;SDS011;60646;55.802;37.032;2023-02-26T01:06:24;12.85;;;5.43;;
67514;SDS011;60646;55.802;37.032;2023-02-26T01:11:22;5.88;;;3.58;;
67514;SDS011;60646;55.802;37.032;2023-02-26T01:13:47;9.93;;;4.40;;
67514;SDS011;60646;55.802;37.032;2023-02-26T01:16:15;8.25;;;4.28;;
67514;SDS011;60646;55.802;37.032;2023-02-26T01:18:47;7.90;;;4.10;;
67514;SDS011;60646;55.802;37.032;2023-02-26T01:21:18;7.03;;;3.50;;
67514;SDS011;60646;55.802;37.032;2023-02-26T01:23:52;8.10;;;3.63;;
67514;SDS011;60646;55.802;37.032;2023-02-26T01:28:51;6.85;;;3.30;;
67514;SDS011;60646;55.802;37.032;2023-02-26T01:31:23;8.45;;;3.60;;
67514;SDS011;60646;55.802;37.032;2023-02-26T01:37:46;5.88;;;2.95;;
67514;SDS011;60646;55.802;37.032;2023-02-26T01:42:30;4.75;;;2.25;;
67514;SDS011;60646;55.802;37.032;2023-02-26T01:45:06;5.35;;;2.28;;
67514;SDS011;60646;55.802;37.032;2023-02-26T01:47:57;4.28;;;2.22;;
67514;SDS011;60646;55.802;37.032;2023-02-26T01:50:29;4.35;;;2.15;;
67514;SDS011;60646;55.802;37.032;2023-02-26T01:55:26;4.10;;;2.10;;
67514;SDS011;60646;55.802;37.032;2023-02-26T01:57:54;3.22;;;1.83;;
67514;SDS011;60646;55.802;37.032;2023-02-26T02:00:23;4.38;;;2.10;;
67514;SDS011;60646;55.802;37.032;2023-02-26T02:02:52;3.42;;;1.88;;
67514;SDS011;60646;55.802;37.032;2023-02-26T02:05:23;3.63;;;1.65;;
67514;SDS011;60646;55.802;37.032;2023-02-26T02:08:06;4.97;;;2.00;;
67514;SDS011;60646;55.802;37.032;2023-02-26T02:10:32;3.45;;;1.90;;
67514;SDS011;60646;55.802;37.032;2023-02-26T02:16:03;2.75;;;1.52;;
67514;SDS011;60646;55.802;37.032;2023-02-26T02:21:18;3.05;;;1.73;;
67514;SDS011;60646;55.802;37.032;2023-02-26T02:24:12;2.42;;;1.65;;
67514;SDS011;60646;55.802;37.032;2023-02-26T02:33:05;2.65;;;1.45;;
67514;SDS011;60646;55.802;37.032;2023-02-26T02:35:31;2.72;;;1.48;;
67514;SDS011;60646;55.802;37.032;2023-02-26T02:38:04;2.10;;;1.27;;
67514;SDS011;60646;55.802;37.032;2023-02-26T02:40:36;2.25;;;1.35;;
67514;SDS011;60646;55.802;37.032;2023-02-26T02:43:10;2.03;;;1.20;;
67514;SDS011;60646;55.802;37.032;2023-02-26T02:45:44;2.58;;;1.48;;
67514;SDS011;60646;55.802;37.032;2023-02-26T02:48:16;2.03;;;1.13;;
67514;SDS011;60646;55.802;37.032;2023-02-26T02:51:16;1.77;;;1.00;;
67514;SDS011;60646;55.802;37.032;2023-02-26T02:56:17;2.97;;;1.40;;
67514;SDS011;60646;55.802;37.032;2023-02-26T02:58:53;2.00;;;1.15;;
67514;SDS011;60646;55.802;37.032;2023-02-26T03:01:36;2.30;;;1.35;;
67514;SDS011;60646;55.802;37.032;2023-02-26T03:04:05;2.05;;;1.20;;
67514;SDS011;60646;55.802;37.032;2023-02-26T03:06:33;1.95;;;1.10;;
67514;SDS011;60646;55.802;37.032;2023-02-26T03:09:00;2.17;;;1.27;;
67514;SDS011;60646;55.802;37.032;2023-02-26T03:11:28;3.13;;;1.58;;
67514;SDS011;60646;55.802;37.032;2023-02-26T03:13:55;1.38;;;0.93;;
67514;SDS011;60646;55.802;37.032;2023-02-26T03:22:10;2.10;;;1.20;;
67514;SDS011;60646;55.802;37.032;2023-02-26T03:24:54;1.70;;;1.23;;
67514;SDS011;60646;55.802;37.032;2023-02-26T03:28:00;1.58;;;1.08;;
67514;SDS011;60646;55.802;37.032;2023-02-26T03:33:14;1.65;;;1.00;;
67514;SDS011;60646;55.802;37.032;2023-02-26T03:38:53;1.50;;;1.20;;
67514;SDS011;60646;55.802;37.032;2023-02-26T03:41:32;1.85;;;1.10;;
67514;SDS011;60646;55.802;37.032;2023-02-26T03:44:17;1.35;;;0.90;;
67514;SDS011;60646;55.802;37.032;2023-02-26T03:46:51;2.53;;;1.23;;
67514;SDS011;60646;55.802;37.032;2023-02-26T03:49:26;2.58;;;1.52;;
67514;SDS011;60646;55.802;37.032;2023-02-26T03:51:58;1.65;;;1.00;;
67514;SDS011;60646;55.802;37.032;2023-02-26T03:54:58;2.20;;;1.30;;
67514;SDS011;60646;55.802;37.032;2023-02-26T03:57:58;2.80;;;1.27;;
67514;SDS011;60646;55.802;37.032;2023-02-26T04:00:31;2.08;;;1.08;;
67514;SDS011;60646;55.802;37.032;2023-02-26T04:03:00;1.83;;;1.40;;
67514;SDS011;60646;55.802;37.032;2023-02-26T04:05:38;2.20;;;1.10;;
67514;SDS011;60646;55.802;37.032;2023-02-26T04:08:07;2.08;;;1.10;;
67514;SDS011;60646;55.802;37.032;2023-02-26T04:10:53;2.55;;;1.20;;
67514;SDS011;60646;55.802;37.032;2023-02-26T04:13:22;2.47;;;1.10;;
67514;SDS011;60646;55.802;37.032;2023-02-26T04:15:49;0.98;;;0.85;;
67514;SDS011;60646;55.802;37.032;2023-02-26T04:18:15;1.48;;;1.10;;
67514;SDS011;60646;55.802;37.032;2023-02-26T04:20:40;2.22;;;1.02;;
67514;SDS011;60646;55.802;37.032;2023-02-26T04:23:08;1.42;;;0.95;;
67514;SDS011;60646;55.802;37.032;2023-02-26T04:25:34;1.00;;;0.85;;
67514;SDS011;60646;55.802;37.032;2023-02-26T04:28:00;1.35;;;0.90;;
67514;SDS011;60646;55.802;37.032;2023-02-26T04:30:26;1.50;;;1.10;;
67514;SDS011;60646;55.802;37.032;2023-02-26T04:32:52;1.52;;;1.00;;
67514;SDS011;60646;55.802;37.032;2023-02-26T04:35:18;1.65;;;1.15;;
67514;SDS011;60646;55.802;37.032;2023-02-26T04:37:44;1.00;;;0.85;;
67514;SDS011;60646;55.802;37.032;2023-02-26T04:40:10;2.08;;;0.82;;
67514;SDS011;60646;55.802;37.032;2023-02-26T04:42:36;1.40;;;1.00;;
67514;SDS011;60646;55.802;37.032;2023-02-26T04:45:02;0.88;;;0.70;;
67514;SDS011;60646;55.802;37.032;2023-02-26T04:47:29;1.40;;;0.95;;
67514;SDS011;60646;55.802;37.032;2023-02-26T04:49:55;1.30;;;0.80;;
67514;SDS011;60646;55.802;37.032;2023-02-26T04:52:21;1.25;;;0.88;;
67514;SDS011;60646;55.802;37.032;2023-02-26T04:54:47;1.30;;;0.90;;
67514;SDS011;60646;55.802;37.032;2023-02-26T04:57:14;1.13;;;0.80;;
67514;SDS011;60646;55.802;37.032;2023-02-26T04:59:40;1.52;;;0.95;;
67514;SDS011;60646;55.802;37.032;2023-02-26T05:02:07;1.73;;;0.82;;
67514;SDS011;60646;55.802;37.032;2023-02-26T05:04:37;1.13;;;0.68;;
67514;SDS011;60646;55.802;37.032;2023-02-26T05:07:03;0.90;;;0.60;;
67514;SDS011;60646;55.802;37.032;2023-02-26T05:09:29;1.00;;;0.70;;
67514;SDS011;60646;55.802;37.032;2023-02-26T05:11:54;1.02;;;0.70;;
67514;SDS011;60646;55.802;37.032;2023-02-26T05:14:21;2.38;;;0.80;;
67514;SDS011;60646;55.802;37.032;2023-02-26T05:16:47;0.47;;;0.45;;
67514;SDS011;60646;55.802;37.032;2023-02-26T05:19:13;0.50;;;0.50;;
67514;SDS011;60646;55.802;37.032;2023-02-26T05:21:39;1.02;;;0.60;;
67514;SDS011;60646;55.802;37.032;2023-02-26T05:24:06;0.40;;;0.40;;
67514;SDS011;60646;55.802;37.032;2023-02-26T05:26:32;0.52;;;0.52;;
67514;SDS011;60646;55.802;37.032;2023-02-26T05:28:58;0.43;;;0.43;;
67514;SDS011;60646;55.802;37.032;2023-02-26T05:31:23;1.10;;;0.47;;
67514;SDS011;60646;55.802;37.032;2023-02-26T05:33:51;0.52;;;0.50;;
67514;SDS011;60646;55.802;37.032;2023-02-26T05:36:17;3.28;;;0.57;;
67514;SDS011;60646;55.802;37.032;2023-02-26T05:38:43;0.55;;;0.50;;
67514;SDS011;60646;55.802;37.032;2023-02-26T05:41:08;0.85;;;0.57;;
67514;SDS011;60646;55.802;37.032;2023-02-26T05:43:34;0.50;;;0.50;;
67514;SDS011;60646;55.802;37.032;2023-02-26T05:46:00;0.60;;;0.50;;
67514;SDS011;60646;55.802;37.032;2023-02-26T05:48:26;0.43;;;0.43;;
67514;SDS011;60646;55.802;37.032;2023-02-26T05:50:52;0.47;;;0.40;;
67514;SDS011;60646;55.802;37.032;2023-02-26T05:53:18;0.32;;;0.32;;
67514;SDS011;60646;55.802;37.032;2023-02-26T05:55:44;0.50;;;0.45;;
67514;SDS011;60646;55.802;37.032;2023-02-26T05:58:10;0.40;;;0.40;;
67514;SDS011;60646;55.802;37.032;2023-02-26T06:00:36;0.40;;;0.40;;
67514;SDS011;60646;55.802;37.032;2023-02-26T06:03:03;0.82;;;0.40;;
67514;SDS011;60646;55.802;37.032;2023-02-26T06:05:29;0.40;;;0.40;;
67514;SDS011;60646;55.802;37.032;2023-02-26T06:07:54;0.60;;;0.50;;
67514;SDS011;60646;55.802;37.032;2023-02-26T06:10:20;0.90;;;0.40;;
67514;SDS011;60646;55.802;37.032;2023-02-26T06:12:46;0.45;;;0.45;;
67514;SDS011;60646;55.802;37.032;2023-02-26T06:15:12;0.50;;;0.50;;
67514;SDS011;60646;55.802;37.032;2023-02-26T06:17:37;0.47;;;0.47;;
67514;SDS011;60646;55.802;37.032;2023-02-26T06:20:04;0.50;;;0.50;;
67514;SDS011;60646;55.802;37.032;2023-02-26T06:22:30;0.85;;;0.60;;
67514;SDS011;60646;55.802;37.032;2023-02-26T06:24:56;0.47;;;0.40;;
67514;SDS011;60646;55.802;37.032;2023-02-26T06:27:22;0.52;;;0.50;;
67514;SDS011;60646;55.802;37.032;2023-02-26T06:29:48;0.50;;;0.50;;
67514;SDS011;60646;55.802;37.032;2023-02-26T06:32:13;0.45;;;0.45;;
67514;SDS011;60646;55.802;37.032;2023-02-26T06:34:39;0.60;;;0.50;;
67514;SDS011;60646;55.802;37.032;2023-02-26T06:37:05;0.50;;;0.50;;
67514;SDS011;60646;55.802;37.032;2023-02-26T06:39:30;0.88;;;0.60;;
67514;SDS011;60646;55.802;37.032;2023-02-26T06:41:56;0.77;;;0.60;;
67514;SDS011;60646;55.802;37.032;2023-02-26T06:44:22;0.73;;;0.60;;
67514;SDS011;60646;55.802;37.032;2023-02-26T06:46:48;0.82;;;0.65;;
67514;SDS011;60646;55.802;37.032;2023-02-26T06:49:14;0.70;;;0.60;;
67514;SDS011;60646;55.802;37.032;2023-02-26T06:51:40;0.82;;;0.68;;
67514;SDS011;60646;55.802;37.032;2023-02-26T06:54:05;1.17;;;0.80;;
67514;SDS011;60646;55.802;37.032;2023-02-26T06:56:31;0.95;;;0.68;;
67514;SDS011;60646;55.802;37.032;2023-02-26T06:58:57;1.65;;;0.73;;
67514;SDS011;60646;55.802;37.032;2023-02-26T07:01:23;0.80;;;0.60;;
67514;SDS011;60646;55.802;37.032;2023-02-26T07:03:49;0.80;;;0.80;;
67514;SDS011;60646;55.802;37.032;2023-02-26T07:06:15;0.88;;;0.70;;
67514;SDS011;60646;55.802;37.032;2023-02-26T07:08:41;1.40;;;0.80;;
67514;SDS011;60646;55.802;37.032;2023-02-26T07:11:07;2.50;;;0.70;;
67514;SDS011;60646;55.802;37.032;2023-02-26T07:13:35;0.85;;;0.70;;
67514;SDS011;60646;55.802;37.032;2023-02-26T07:16:02;0.88;;;0.70;;
67514;SDS011;60646;55.802;37.032;2023-02-26T07:18:35;0.80;;;0.70;;
67514;SDS011;60646;55.802;37.032;2023-02-26T07:21:01;1.13;;;0.73;;
67514;SDS011;60646;55.802;37.032;2023-02-26T07:23:28;1.30;;;0.88;;
67514;SDS011;60646;55.802;37.032;2023-02-26T07:25:55;1.15;;;0.82;;
67514;SDS011;60646;55.802;37.032;2023-02-26T07:28:21;1.17;;;0.90;;
67514;SDS011;60646;55.802;37.032;2023-02-26T07:30:47;0.98;;;0.75;;
67514;SDS011;60646;55.802;37.032;2023-02-26T07:33:14;0.75;;;0.63;;
67514;SDS011;60646;55.802;37.032;2023-02-26T07:35:39;1.02;;;0.82;;
67514;SDS011;60646;55.802;37.032;2023-02-26T07:38:05;0.80;;;0.80;;
67514;SDS011;60646;55.802;37.032;2023-02-26T07:40:31;1.67;;;0.98;;
67514;SDS011;60646;55.802;37.032;2023-02-26T07:42:58;1.10;;;1.00;;
67514;SDS011;60646;55.802;37.032;2023-02-26T07:45:23;1.20;;;0.90;;
67514;SDS011;60646;55.802;37.032;2023-02-26T07:47:50;1.55;;;0.80;;
67514;SDS011;60646;55.802;37.032;2023-02-26T07:50:17;3.95;;;0.80;;
67514;SDS011;60646;55.802;37.032;2023-02-26T07:52:47;0.73;;;0.60;;
67514;SDS011;60646;55.802;37.032;2023-02-26T07:55:13;0.95;;;0.63;;
67514;SDS011;60646;55.802;37.032;2023-02-26T07:57:39;0.98;;;0.65;;
67514;SDS011;60646;55.802;37.032;2023-02-26T08:00:05;1.73;;;1.05;;
67514;SDS011;60646;55.802;37.032;2023-02-26T08:02:37;1.40;;;0.70;;
67514;SDS011;60646;55.802;37.032;2023-02-26T08:05:03;2.10;;;0.80;;
67514;SDS011;60646;55.802;37.032;2023-02-26T08:07:30;0.50;;;0.50;;
67514;SDS011;60646;55.802;37.032;2023-02-26T08:09:56;0.50;;;0.50;;
67514;SDS011;60646;55.802;37.032;2023-02-26T08:12:22;0.50;;;0.50;;
67514;SDS011;60646;55.802;37.032;2023-02-26T08:14:48;0.98;;;0.63;;
67514;SDS011;60646;55.802;37.032;2023-02-26T08:17:13;2.53;;;0.88;;
67514;SDS011;60646;55.802;37.032;2023-02-26T08:19:39;0.60;;;0.60;;
67514;SDS011;60646;55.802;37.032;2023-02-26T08:22:05;0.75;;;0.70;;
67514;SDS011;60646;55.802;37.032;2023-02-26T08:24:31;0.93;;;0.75;;
67514;SDS011;60646;55.802;37.032;2023-02-26T08:26:57;0.82;;;0.73;;
67514;SDS011;60646;55.802;37.032;2023-02-26T08:29:23;0.95;;;0.70;;
67514;SDS011;60646;55.802;37.032;2023-02-26T08:31:49;1.38;;;0.80;;
67514;SDS011;60646;55.802;37.032;2023-02-26T08:34:16;1.33;;;0.63;;
67514;SDS011;60646;55.802;37.032;2023-02-26T08:36:42;0.70;;;0.70;;
67514;SDS011;60646;55.802;37.032;2023-02-26T08:39:08;0.82;;;0.80;;
67514;SDS011;60646;55.802;37.032;2023-02-26T08:41:34;0.82;;;0.65;;
67514;SDS011;60646;55.802;37.032;2023-02-26T08:44:01;1.05;;;0.68;;
67514;SDS011;60646;55.802;37.032;2023-02-26T08:46:27;0.95;;;0.52;;
67514;SDS011;60646;55.802;37.032;2023-02-26T08:48:53;4.85;;;0.80;;
67514;SDS011;60646;55.802;37.032;2023-02-26T08:51:19;0.50;;;0.50;;
67514;SDS011;60646;55.802;37.032;2023-02-26T08:53:46;0.77;;;0.50;;
67514;SDS011;60646;55.802;37.032;2023-02-26T08:56:12;0.55;;;0.43;;
67514;SDS011;60646;55.802;37.032;2023-02-26T08:58:38;0.63;;;0.60;;
67514;SDS011;60646;55.802;37.032;2023-02-26T09:01:04;0.70;;;0.50;;
67514;SDS011;60646;55.802;37.032;2023-02-26T09:03:29;0.40;;;0.40;;
67514;SDS011;60646;55.802;37.032;2023-02-26T09:05:55;0.52;;;0.50;;
67514;SDS011;60646;55.802;37.032;2023-02-26T09:08:21;0.90;;;0.55;;
67514;SDS011;60646;55.802;37.032;2023-02-26T09:10:47;1.95;;;0.70;;
67514;SDS011;60646;55.802;37.032;2023-02-26T09:13:13;1.00;;;0.50;;
67514;SDS011;60646;55.802;37.032;2023-02-26T09:15:39;0.50;;;0.50;;
67514;SDS011;60646;55.802;37.032;2023-02-26T09:18:05;0.47;;;0.43;;
67514;SDS011;60646;55.802;37.032;2023-02-26T09:20:31;0.90;;;0.50;;
67514;SDS011;60646;55.802;37.032;2023-02-26T09:22:57;0.60;;;0.52;;
67514;SDS011;60646;55.802;37.032;2023-02-26T09:25:23;0.55;;;0.50;;
67514;SDS011;60646;55.802;37.032;2023-02-26T09:27:49;0.50;;;0.50;;
67514;SDS011;60646;55.802;37.032;2023-02-26T09:30:15;0.60;;;0.60;;
67514;SDS011;60646;55.802;37.032;2023-02-26T09:32:41;0.55;;;0.55;;
67514;SDS011;60646;55.802;37.032;2023-02-26T09:35:07;0.63;;;0.50;;
67514;SDS011;60646;55.802;37.032;2023-02-26T09:37:34;1.70;;;0.57;;
67514;SDS011;60646;55.802;37.032;2023-02-26T09:40:00;1.33;;;0.50;;
67514;SDS011;60646;55.802;37.032;2023-02-26T09:44:58;0.50;;;0.50;;
67514;SDS011;60646;55.802;37.032;2023-02-26T09:49:53;0.70;;;0.63;;
67514;SDS011;60646;55.802;37.032;2023-02-26T09:52:28;0.50;;;0.50;;
67514;SDS011;60646;55.802;37.032;2023-02-26T09:55:00;0.50;;;0.50;;
67514;SDS011;60646;55.802;37.032;2023-02-26T09:57:36;0.60;;;0.60;;
67514;SDS011;60646;55.802;37.032;2023-02-26T10:00:15;3.20;;;0.60;;
67514;SDS011;60646;55.802;37.032;2023-02-26T10:08:01;0.75;;;0.55;;
67514;SDS011;60646;55.802;37.032;2023-02-26T10:13:38;0.50;;;0.50;;
67514;SDS011;60646;55.802;37.032;2023-02-26T10:16:12;0.50;;;0.50;;
67514;SDS011;60646;55.802;37.032;2023-02-26T10:18:44;1.00;;;0.63;;
67514;SDS011;60646;55.802;37.032;2023-02-26T10:21:34;0.65;;;0.50;;
67514;SDS011;60646;55.802;37.032;2023-02-26T10:24:12;1.00;;;0.70;;
67514;SDS011;60646;55.802;37.032;2023-02-26T10:26:44;2.15;;;1.13;;
67514;SDS011;60646;55.802;37.032;2023-02-26T10:34:34;1.33;;;0.80;;
67514;SDS011;60646;55.802;37.032;2023-02-26T10:37:49;1.38;;;0.70;;
67514;SDS011;60646;55.802;37.032;2023-02-26T10:40:02;1.40;;;0.90;;
67514;SDS011;60646;55.802;37.032;2023-02-26T10:42:37;1.40;;;1.10;;
67514;SDS011;60646;55.802;37.032;2023-02-26T10:45:25;1.25;;;0.80;;
67514;SDS011;60646;55.802;37.032;2023-02-26T10:48:20;0.80;;;0.77;;
67514;SDS011;60646;55.802;37.032;2023-02-26T10:50:51;1.38;;;0.80;;
67514;SDS011;60646;55.802;37.032;2023-02-26T10:53:20;0.85;;;0.70;;
67514;SDS011;60646;55.802;37.032;2023-02-26T10:55:50;1.23;;;0.80;;
67514;SDS011;60646;55.802;37.032;2023-02-26T10:58:24;2.05;;;1.17;;
67514;SDS011;60646;55.802;37.032;2023-02-26T11:00:52;1.90;;;1.20;;
67514;SDS011;60646;55.802;37.032;2023-02-26T11:05:57;1.27;;;1.05;;
67514;SDS011;60646;55.802;37.032;2023-02-26T11:08:26;1.95;;;1.08;;
67514;SDS011;60646;55.802;37.032;2023-02-26T11:10:57;0.90;;;0.82;;
67514;SDS011;60646;55.802;37.032;2023-02-26T11:13:25;2.53;;;0.80;;
67514;SDS011;60646;55.802;37.032;2023-02-26T11:16:05;1.35;;;1.02;;
67514;SDS011;60646;55.802;37.032;2023-02-26T11:18:43;2.35;;;1.05;;
67514;SDS011;60646;55.802;37.032;2023-02-26T11:21:18;1.77;;;0.98;;
67514;SDS011;60646;55.802;37.032;2023-02-26T11:23:51;1.52;;;0.90;;
67514;SDS011;60646;55.802;37.032;2023-02-26T11:26:26;1.50;;;0.95;;
67514;SDS011;60646;55.802;37.032;2023-02-26T11:28:57;1.45;;;0.98;;
67514;SDS011;60646;55.802;37.032;2023-02-26T11:31:24;1.85;;;1.00;;
67514;SDS011;60646;55.802;37.032;2023-02-26T11:34:12;1.27;;;0.90;;
67514;SDS011;60646;55.802;37.032;2023-02-26T11:36:38;1.50;;;1.02;;
67514;SDS011;60646;55.802;37.032;2023-02-26T11:39:07;1.70;;;0.90;;
67514;SDS011;60646;55.802;37.032;2023-02-26T11:41:50;0.90;;;0.80;;
67514;SDS011;60646;55.802;37.032;2023-02-26T11:44:36;1.45;;;0.90;;
67514;SDS011;60646;55.802;37.032;2023-02-26T11:47:06;1.17;;;0.80;;
67514;SDS011;60646;55.802;37.032;2023-02-26T11:49:40;1.88;;;1.00;;
67514;SDS011;60646;55.802;37.032;2023-02-26T11:54:36;1.48;;;1.00;;
67514;SDS011;60646;55.802;37.032;2023-02-26T11:57:11;1.48;;;1.00;;
67514;SDS011;60646;55.802;37.032;2023-02-26T11:59:42;1.92;;;1.00;;
67514;SDS011;60646;55.802;37.032;2023-02-26T12:02:14;1.90;;;1.20;;
67514;SDS011;60646;55.802;37.032;2023-02-26T12:04:43;2.70;;;1.52;;
67514;SDS011;60646;55.802;37.032;2023-02-26T12:07:11;2.28;;;1.52;;
67514;SDS011;60646;55.802;37.032;2023-02-26T12:09:39;3.85;;;1.40;;
67514;SDS011;60646;55.802;37.032;2023-02-26T12:38:28;3.60;;;1.70;;
67514;SDS011;60646;55.802;37.032;2023-02-26T12:49:49;2.38;;;1.55;;
67514;SDS011;60646;55.802;37.032;2023-02-26T12:55:33;6.63;;;3.33;;
67514;SDS011;60646;55.802;37.032;2023-02-26T12:58:38;4.43;;;2.10;;
67514;SDS011;60646;55.802;37.032;2023-02-26T13:01:19;6.15;;;3.22;;
67514;SDS011;60646;55.802;37.032;2023-02-26T13:09:41;5.07;;;3.25;;
67514;SDS011;60646;55.802;37.032;2023-02-26T13:17:59;6.65;;;3.38;;
67514;SDS011;60646;55.802;37.032;2023-02-26T13:20:36;4.03;;;2.50;;
67514;SDS011;60646;55.802;37.032;2023-02-26T13:23:11;4.55;;;2.58;;
67514;SDS011;60646;55.802;37.032;2023-02-26T13:25:53;5.20;;;3.10;;
67514;SDS011;60646;55.802;37.032;2023-02-26T13:28:40;6.78;;;3.00;;
67514;SDS011;60646;55.802;37.032;2023-02-26T13:34:00;4.20;;;2.75;;
67514;SDS011;60646;55.802;37.032;2023-02-26T13:36:29;4.07;;;2.47;;
67514;SDS011;60646;55.802;37.032;2023-02-26T13:41:25;5.07;;;2.70;;
67514;SDS011;60646;55.802;37.032;2023-02-26T13:44:17;6.80;;;3.25;;
67514;SDS011;60646;55.802;37.032;2023-02-26T13:52:01;5.95;;;3.03;;
67514;SDS011;60646;55.802;37.032;2023-02-26T13:54:28;4.57;;;2.70;;
67514;SDS011;60646;55.802;37.032;2023-02-26T13:57:22;5.65;;;2.88;;
67514;SDS011;60646;55.802;37.032;2023-02-26T13:59:54;5.68;;;2.92;;
67514;SDS011;60646;55.802;37.032;2023-02-26T14:04:59;5.80;;;3.58;;
67514;SDS011;60646;55.802;37.032;2023-02-26T14:07:46;6.43;;;3.40;;
67514;SDS011;60646;55.802;37.032;2023-02-26T14:10:15;7.28;;;3.53;;
67514;SDS011;60646;55.802;37.032;2023-02-26T14:13:00;5.70;;;3.80;;
67514;SDS011;60646;55.802;37.032;2023-02-26T14:15:40;6.90;;;3.58;;
67514;SDS011;60646;55.802;37.032;2023-02-26T14:21:35;6.90;;;3.58;;
67514;SDS011;60646;55.802;37.032;2023-02-26T14:26:43;6.20;;;3.67;;
67514;SDS011;60646;55.802;37.032;2023-02-26T14:32:03;6.40;;;3.58;;
67514;SDS011;60646;55.802;37.032;2023-02-26T14:34:30;6.32;;;3.42;;
67514;SDS011;60646;55.802;37.032;2023-02-26T14:37:02;6.25;;;3.65;;
67514;SDS011;60646;55.802;37.032;2023-02-26T14:39:56;5.70;;;3.33;;
67514;SDS011;60646;55.802;37.032;2023-02-26T14:42:55;7.00;;;3.30;;
67514;SDS011;60646;55.802;37.032;2023-02-26T14:47:53;6.95;;;3.55;;
67514;SDS011;60646;55.802;37.032;2023-02-26T14:50:20;5.88;;;3.55;;
67514;SDS011;60646;55.802;37.032;2023-02-26T15:12:01;6.78;;;3.55;;
67514;SDS011;60646;55.802;37.032;2023-02-26T15:25:56;8.30;;;3.70;;
67514;SDS011;60646;55.802;37.032;2023-02-26T15:30:53;8.10;;;3.90;;
67514;SDS011;60646;55.802;37.032;2023-02-26T15:33:21;6.75;;;3.50;;
67514;SDS011;60646;55.802;37.032;2023-02-26T15:35:48;6.45;;;3.10;;
67514;SDS011;60646;55.802;37.032;2023-02-26T15:38:16;7.03;;;4.00;;
67514;SDS011;60646;55.802;37.032;2023-02-26T15:40:42;6.40;;;3.42;;
67514;SDS011;60646;55.802;37.032;2023-02-26T15:43:11;6.95;;;3.97;;
67514;SDS011;60646;55.802;37.032;2023-02-26T15:45:41;5.03;;;3.22;;
67514;SDS011;60646;55.802;37.032;2023-02-26T15:48:17;6.65;;;3.50;;
67514;SDS011;60646;55.802;37.032;2023-02-26T15:50:51;7.03;;;3.70;;
67514;SDS011;60646;55.802;37.032;2023-02-26T15:53:23;7.22;;;3.90;;
67514;SDS011;60646;55.802;37.032;2023-02-26T15:55:55;7.22;;;3.50;;
67514;SDS011;60646;55.802;37.032;2023-02-26T15:58:36;5.72;;;3.10;;
67514;SDS011;60646;55.802;37.032;2023-02-26T16:01:12;6.18;;;3.33;;
67514;SDS011;60646;55.802;37.032;2023-02-26T16:03:40;6.25;;;3.42;;
67514;SDS011;60646;55.802;37.032;2023-02-26T16:06:08;6.55;;;3.20;;
67514;SDS011;60646;55.802;37.032;2023-02-26T16:08:37;7.10;;;3.88;;
67514;SDS011;60646;55.802;37.032;2023-02-26T16:11:03;6.38;;;3.22;;
67514;SDS011;60646;55.802;37.032;2023-02-26T16:13:31;6.38;;;3.45;;
67514;SDS011;60646;55.802;37.032;2023-02-26T16:15:59;5.40;;;2.95;;
67514;SDS011;60646;55.802;37.032;2023-02-26T16:18:29;9.30;;;3.33;;
67514;SDS011;60646;55.802;37.032;2023-02-26T16:20:57;9.38;;;3.72;;
67514;SDS011;60646;55.802;37.032;2023-02-26T16:23:40;6.50;;;3.72;;
67514;SDS011;60646;55.802;37.032;2023-02-26T16:26:15;5.40;;;3.03;;
67514;SDS011;60646;55.802;37.032;2023-02-26T16:28:45;8.02;;;3.83;;
67514;SDS011;60646;55.802;37.032;2023-02-26T16:31:18;7.93;;;3.42;;
67514;SDS011;60646;55.802;37.032;2023-02-26T16:33:53;5.45;;;2.92;;
67514;SDS011;60646;55.802;37.032;2023-02-26T16:36:40;6.88;;;3.42;;
67514;SDS011;60646;55.802;37.032;2023-02-26T16:41:36;6.80;;;3.17;;
67514;SDS011;60646;55.802;37.032;2023-02-26T16:47:11;9.15;;;3.97;;
67514;SDS011;60646;55.802;37.032;2023-02-26T16:49:38;6.00;;;3.13;;
67514;SDS011;60646;55.802;37.032;2023-02-26T16:52:05;6.18;;;3.38;;
67514;SDS011;60646;55.802;37.032;2023-02-26T16:54:37;7.25;;;3.70;;
67514;SDS011;60646;55.802;37.032;2023-02-26T16:57:16;5.03;;;2.92;;
67514;SDS011;60646;55.802;37.032;2023-02-26T16:59:52;5.97;;;3.08;;
67514;SDS011;60646;55.802;37.032;2023-02-26T17:02:21;6.00;;;3.58;;
67514;SDS011;60646;55.802;37.032;2023-02-26T17:04:53;4.85;;;2.67;;
67514;SDS011;60646;55.802;37.032;2023-02-26T17:07:29;8.10;;;3.65;;
67514;SDS011;60646;55.802;37.032;2023-02-26T17:10:21;6.35;;;3.55;;
67514;SDS011;60646;55.802;37.032;2023-02-26T17:15:51;6.07;;;2.95;;
67514;SDS011;60646;55.802;37.032;2023-02-26T17:18:18;5.05;;;3.00;;
67514;SDS011;60646;55.802;37.032;2023-02-26T17:20:46;5.63;;;3.00;;
67514;SDS011;60646;55.802;37.032;2023-02-26T17:23:13;6.82;;;3.28;;
67514;SDS011;60646;55.802;37.032;2023-02-26T17:26:00;6.45;;;3.30;;
67514;SDS011;60646;55.802;37.032;2023-02-26T17:28:28;8.43;;;3.42;;
67514;SDS011;60646;55.802;37.032;2023-02-26T17:30:56;6.07;;;3.00;;
67514;SDS011;60646;55.802;37.032;2023-02-26T17:33:22;4.88;;;2.67;;
67514;SDS011;60646;55.802;37.032;2023-02-26T17:35:48;5.28;;;2.92;;
67514;SDS011;60646;55.802;37.032;2023-02-26T17:38:15;5.72;;;2.63;;
67514;SDS011;60646;55.802;37.032;2023-02-26T17:40:42;5.10;;;2.85;;
67514;SDS011;60646;55.802;37.032;2023-02-26T17:43:11;5.15;;;2.90;;
67514;SDS011;60646;55.802;37.032;2023-02-26T17:45:38;5.32;;;2.78;;
67514;SDS011;60646;55.802;37.032;2023-02-26T17:48:08;6.13;;;3.15;;
67514;SDS011;60646;55.802;37.032;2023-02-26T17:50:52;5.78;;;2.80;;
67514;SDS011;60646;55.802;37.032;2023-02-26T17:53:20;6.38;;;3.10;;
67514;SDS011;60646;55.802;37.032;2023-02-26T17:55:48;4.88;;;2.67;;
67514;SDS011;60646;55.802;37.032;2023-02-26T17:58:17;4.90;;;2.60;;